Time;durP1;ratioP1;P1;durP2;ratioP2;P2;SDS_P1;SDS_P2;PMS_P1;PMS_P2;Temp;Humidity;BMP_temperature;BMP_pressure;BME280_temperature;BME280_humidity;BME280_pressure;Samples;Min_cycle;Max_cycle;Signal;HPM_P1;HPM_P2
2021/08/29 00:01:59;;;;;;;14.65;10.32;;;11.90;99.90;;;;;;5074261;28;20376;-74
2021/08/29 00:04:25;;;;;;;27.70;11.35;;;11.90;99.90;;;;;;5073923;28;20044;-72
2021/08/29 00:06:52;;;;;;;13.30;10.93;;;11.90;99.90;;;;;;5074350;28;20032;-73
2021/08/29 00:09:17;;;;;;;16.77;10.25;;;11.90;99.90;;;;;;5074273;28;20029;-74
2021/08/29 00:11:43;;;;;;;11.30;9.68;;;11.80;99.90;;;;;;5074217;28;20394;-74
2021/08/29 00:14:09;;;;;;;16.08;11.32;;;11.90;99.90;;;;;;5074043;28;20038;-73
2021/08/29 00:16:35;;;;;;;14.02;11.25;;;11.90;99.90;;;;;;5073788;28;20100;-74
2021/08/29 00:19:01;;;;;;;17.48;12.07;;;11.80;99.90;;;;;;5074143;28;20020;-74
2021/08/29 00:21:26;;;;;;;13.35;11.43;;;12.00;99.90;;;;;;5074143;28;20445;-74
2021/08/29 00:23:52;;;;;;;12.00;10.80;;;12.00;99.90;;;;;;5074005;28;20091;-73
2021/08/29 00:26:18;;;;;;;12.68;10.50;;;12.10;99.90;;;;;;5073425;28;20381;-74
2021/08/29 00:28:43;;;;;;;10.88;9.77;;;12.00;99.90;;;;;;5073860;28;20077;-74
2021/08/29 00:31:09;;;;;;;11.48;9.38;;;12.00;99.90;;;;;;5073680;28;20044;-74
2021/08/29 00:33:35;;;;;;;10.73;9.40;;;11.70;99.90;;;;;;5090784;28;20028;-73
2021/08/29 00:36:00;;;;;;;11.25;8.40;;;11.60;99.90;;;;;;5073535;28;20035;-74
2021/08/29 00:38:26;;;;;;;10.65;8.88;;;11.60;99.90;;;;;;5073469;28;20032;-73
2021/08/29 00:40:52;;;;;;;8.98;8.07;;;11.60;99.90;;;;;;5074165;28;20034;-74
2021/08/29 00:43:18;;;;;;;11.05;9.95;;;11.60;99.90;;;;;;5073752;28;20020;-73
2021/08/29 00:45:45;;;;;;;11.07;8.13;;;11.60;99.90;;;;;;5073235;28;20017;-73
2021/08/29 00:48:13;;;;;;;9.13;8.20;;;11.60;99.90;;;;;;5073699;28;20360;-74
2021/08/29 00:50:42;;;;;;;8.32;7.53;;;11.60;99.90;;;;;;5073524;28;20078;-74
2021/08/29 00:53:08;;;;;;;9.25;7.82;;;11.60;99.90;;;;;;5074037;28;20039;-74
2021/08/29 00:55:37;;;;;;;9.05;7.75;;;11.60;99.90;;;;;;5073372;28;20025;-74
2021/08/29 00:58:03;;;;;;;11.38;7.18;;;11.60;99.90;;;;;;5073599;28;20040;-74
2021/08/29 01:00:33;;;;;;;10.02;7.55;;;11.60;99.90;;;;;;5073529;28;20471;-74
2021/08/29 01:03:02;;;;;;;8.30;7.50;;;11.70;99.90;;;;;;5073550;28;20021;-74
2021/08/29 01:05:35;;;;;;;9.15;7.72;;;11.80;99.90;;;;;;5072466;28;20119;-73
2021/08/29 01:08:05;;;;;;;;;;;11.90;99.90;;;;;;5073678;28;20025;-74
2021/08/29 01:10:39;;;;;;;8.30;7.50;;;11.70;99.90;;;;;;5073307;28;20480;-72
2021/08/29 01:13:11;;;;;;;9.70;8.13;;;11.60;99.90;;;;;;5073165;28;20127;-72
2021/08/29 01:15:37;;;;;;;9.57;8.43;;;11.40;99.90;;;;;;5072740;28;20056;-72
2021/08/29 01:18:05;;;;;;;11.20;7.97;;;11.40;99.90;;;;;;5073579;28;20075;-72
2021/08/29 01:20:34;;;;;;;11.10;8.07;;;11.50;99.90;;;;;;5093184;28;20056;-72
2021/08/29 01:23:01;;;;;;;8.45;7.65;;;11.60;99.90;;;;;;5075784;28;20033;-72
2021/08/29 01:25:32;;;;;;;10.95;7.97;;;11.60;99.90;;;;;;5072584;28;20490;-73
2021/08/29 01:28:18;;;;;;;12.13;8.05;;;11.80;99.90;;;;;;5073473;28;20060;-73
2021/08/29 01:30:45;;;;;;;10.25;8.27;;;11.70;99.90;;;;;;5072402;28;20083;-74
2021/08/29 01:33:13;;;;;;;10.13;8.63;;;11.90;99.90;;;;;;5072738;28;20024;-73
2021/08/29 01:35:40;;;;;;;12.85;7.90;;;11.90;99.90;;;;;;5072139;28;20017;-74
2021/08/29 01:38:07;;;;;;;8.23;7.43;;;11.90;99.90;;;;;;5072616;28;20024;-73
2021/08/29 01:40:34;;;;;;;7.88;7.07;;;11.90;99.90;;;;;;5072528;28;20032;-72
2021/08/29 01:43:00;;;;;;;9.52;7.53;;;11.90;99.90;;;;;;5072004;28;20025;-74
2021/08/29 01:45:27;;;;;;;11.40;7.75;;;11.70;99.90;;;;;;5071705;28;20071;-73
2021/08/29 01:47:57;;;;;;;9.07;7.50;;;11.70;99.90;;;;;;5072432;28;20024;-73
2021/08/29 01:50:25;;;;;;;11.00;7.40;;;11.80;99.90;;;;;;5072092;28;20352;-73
2021/08/29 01:52:50;;;;;;;9.30;7.57;;;11.80;99.90;;;;;;5072361;28;20028;-73
2021/08/29 01:55:16;;;;;;;7.93;7.15;;;11.70;99.90;;;;;;5071884;28;20043;-73
2021/08/29 01:57:42;;;;;;;7.78;7.00;;;11.50;99.90;;;;;;5072157;28;20024;-73
2021/08/29 02:00:08;;;;;;;9.13;7.07;;;11.70;99.90;;;;;;5071772;28;20024;-73
2021/08/29 02:02:34;;;;;;;10.38;8.02;;;11.60;99.90;;;;;;5072145;28;20394;-73
2021/08/29 02:05:00;;;;;;;9.20;7.35;;;11.70;99.90;;;;;;5071420;28;20025;-73
2021/08/29 02:07:37;;;;;;;9.43;7.63;;;11.70;99.90;;;;;;5072394;28;20394;-73
2021/08/29 02:10:09;;;;;;;14.25;7.80;;;11.60;99.90;;;;;;5072654;28;20477;-72
2021/08/29 02:12:54;;;;;;;10.20;8.23;;;11.40;99.90;;;;;;5072780;28;20028;-73
2021/08/29 02:15:38;;;;;;;8.63;7.72;;;11.50;99.90;;;;;;5071198;28;20066;-73
2021/08/29 02:18:07;;;;;;;8.43;7.47;;;11.40;99.90;;;;;;5072037;28;20063;-73
2021/08/29 02:20:34;;;;;;;9.05;7.88;;;11.40;99.90;;;;;;5071635;28;20146;-74
2021/08/29 02:23:00;;;;;;;11.60;8.05;;;11.30;99.90;;;;;;5071917;28;20405;-72
2021/08/29 02:25:26;;;;;;;11.52;8.45;;;11.30;99.90;;;;;;5071069;28;20117;-74
2021/08/29 02:27:52;;;;;;;9.73;8.40;;;11.40;99.90;;;;;;5071758;28;20071;-72
2021/08/29 02:30:19;;;;;;;9.30;8.40;;;11.50;99.90;;;;;;5071298;28;20044;-73
2021/08/29 02:32:45;;;;;;;9.43;8.38;;;11.60;99.90;;;;;;5071545;28;20028;-72
2021/08/29 02:35:11;;;;;;;8.55;7.68;;;11.60;99.90;;;;;;5070758;28;20020;-73
2021/08/29 02:37:38;;;;;;;8.48;7.45;;;11.60;99.90;;;;;;5071674;28;20024;-73
2021/08/29 02:40:07;;;;;;;11.43;8.55;;;11.60;99.90;;;;;;5071512;28;20029;-73
2021/08/29 02:42:33;;;;;;;8.38;7.22;;;11.70;99.90;;;;;;5071461;28;20031;-73
2021/08/29 02:45:03;;;;;;;12.68;8.02;;;11.70;99.90;;;;;;5070746;28;20031;-73
2021/08/29 02:47:30;;;;;;;8.20;7.38;;;11.80;99.90;;;;;;5071266;28;20028;-73
2021/08/29 02:49:57;;;;;;;9.18;8.27;;;11.80;99.90;;;;;;5071350;28;20025;-73
2021/08/29 02:52:23;;;;;;;8.75;7.80;;;11.90;99.90;;;;;;5071319;28;20067;-73
2021/08/29 02:54:50;;;;;;;10.48;8.32;;;11.90;99.90;;;;;;5069783;28;20108;-73
2021/08/29 02:57:17;;;;;;;9.15;8.25;;;12.00;99.90;;;;;;5071504;28;20485;-73
2021/08/29 02:59:43;;;;;;;9.95;7.22;;;12.00;99.90;;;;;;5071046;28;20090;-72
2021/08/29 03:02:12;;;;;;;8.82;8.00;;;12.00;99.90;;;;;;5071236;28;20071;-73
2021/08/29 03:04:39;;;;;;;9.20;7.18;;;11.90;99.90;;;;;;5070473;28;20033;-72
2021/08/29 03:07:05;;;;;;;7.88;7.07;;;11.80;99.90;;;;;;5071392;28;20155;-73
2021/08/29 03:09:33;;;;;;;8.57;7.13;;;11.90;99.90;;;;;;5071221;28;20033;-73
2021/08/29 03:12:11;;;;;;;8.07;7.18;;;11.90;99.90;;;;;;5071047;28;20039;-71
2021/08/29 03:14:38;;;;;;;9.05;7.05;;;11.90;99.90;;;;;;5070287;28;20394;-74
2021/08/29 03:17:06;;;;;;;8.40;7.38;;;11.80;99.90;;;;;;5071058;28;20336;-73
2021/08/29 03:19:33;;;;;;;9.27;8.00;;;11.90;99.90;;;;;;5071297;28;20055;-74
2021/08/29 03:21:58;;;;;;;8.02;7.18;;;11.80;99.90;;;;;;5071236;28;20029;-73
2021/08/29 03:24:24;;;;;;;8.60;6.60;;;11.80;99.90;;;;;;5070444;28;20039;-73
2021/08/29 03:26:50;;;;;;;8.40;7.63;;;11.90;99.90;;;;;;5052986;28;20028;-72
2021/08/29 03:29:16;;;;;;;9.27;7.53;;;11.90;99.90;;;;;;5070693;28;20534;-73
2021/08/29 03:31:42;;;;;;;8.65;7.65;;;12.00;99.90;;;;;;5070933;28;20033;-72
2021/08/29 03:34:12;;;;;;;8.20;6.72;;;11.80;99.90;;;;;;5071135;28;20407;-73
2021/08/29 03:36:42;;;;;;;7.43;6.72;;;11.80;99.90;;;;;;5070043;28;20382;-72
2021/08/29 03:39:10;;;;;;;8.82;7.15;;;11.80;99.90;;;;;;5070993;28;20071;-73
2021/08/29 03:41:38;;;;;;;7.75;6.90;;;11.70;99.90;;;;;;5070873;28;20032;-73
2021/08/29 03:44:04;;;;;;;8.70;7.85;;;11.70;99.90;;;;;;5070716;28;20028;-73
2021/08/29 03:46:30;;;;;;;8.23;7.32;;;11.80;99.90;;;;;;5070137;28;20555;-73
2021/08/29 03:48:56;;;;;;;8.05;7.10;;;11.70;99.90;;;;;;5070220;28;20051;-71
2021/08/29 03:51:23;;;;;;;7.75;7.00;;;11.60;99.90;;;;;;5070577;28;20482;-71
2021/08/29 03:53:50;;;;;;;17.83;7.53;;;11.60;99.90;;;;;;5070949;28;20025;-71
2021/08/29 03:56:15;;;;;;;8.20;7.40;;;11.60;99.90;;;;;;5070078;28;20032;-72
2021/08/29 03:58:41;;;;;;;8.40;7.50;;;11.60;99.90;;;;;;5070664;28;20012;-72
2021/08/29 04:01:08;;;;;;;11.20;7.55;;;11.80;99.90;;;;;;5070778;28;20024;-72
2021/08/29 04:03:34;;;;;;;10.27;8.30;;;11.80;99.90;;;;;;5070874;28;20029;-73
2021/08/29 04:06:02;;;;;;;9.75;8.73;;;11.80;99.90;;;;;;5070937;28;20413;-73
2021/08/29 04:08:39;;;;;;;9.60;7.40;;;11.90;99.90;;;;;;5074686;28;20020;-72
2021/08/29 04:11:08;;;;;;;9.13;7.85;;;11.80;99.90;;;;;;5074181;28;20418;-71
2021/08/29 04:13:36;;;;;;;9.60;8.23;;;11.90;99.90;;;;;;5074018;28;20562;-72
2021/08/29 04:16:03;;;;;;;8.85;7.28;;;11.90;99.90;;;;;;5073736;28;20032;-72
2021/08/29 04:18:36;;;;;;;10.43;8.30;;;11.80;99.90;;;;;;5073527;28;20023;-73
2021/08/29 04:21:03;;;;;;;9.70;8.07;;;11.90;99.90;;;;;;5074269;28;20024;-72
2021/08/29 04:23:29;;;;;;;10.07;8.02;;;11.90;99.90;;;;;;5073938;28;20050;-72
2021/08/29 04:25:55;;;;;;;9.65;7.40;;;12.00;99.90;;;;;;5073454;28;20032;-72
2021/08/29 04:28:20;;;;;;;9.75;8.07;;;11.90;99.90;;;;;;5074040;28;20066;-72
2021/08/29 04:30:50;;;;;;;10.85;8.75;;;12.00;99.90;;;;;;5070921;28;20020;-70
2021/08/29 04:33:16;;;;;;;10.02;8.45;;;12.10;99.90;;;;;;5083818;28;20035;-71
2021/08/29 04:35:42;;;;;;;10.00;8.77;;;12.20;99.90;;;;;;5073563;28;20024;-71
2021/08/29 04:38:07;;;;;;;9.32;8.32;;;12.20;99.90;;;;;;5090450;28;20031;-70
2021/08/29 04:40:33;;;;;;;11.82;8.70;;;12.20;99.90;;;;;;5093085;28;20016;-69
2021/08/29 04:42:59;;;;;;;15.68;10.85;;;12.30;99.90;;;;;;5093517;28;20108;-70
2021/08/29 04:45:25;;;;;;;10.38;8.98;;;12.30;99.90;;;;;;5093068;28;20024;-71
2021/08/29 04:47:50;;;;;;;14.20;10.98;;;12.40;99.90;;;;;;5083968;28;20031;-69
2021/08/29 04:50:17;;;;;;;14.05;9.73;;;12.50;99.90;;;;;;5093604;28;20024;-70
2021/08/29 04:52:43;;;;;;;11.77;9.45;;;12.50;99.90;;;;;;5090541;28;20032;-71
2021/08/29 04:55:08;;;;;;;10.60;9.38;;;12.40;99.90;;;;;;5054738;28;20031;-70
2021/08/29 04:57:34;;;;;;;10.30;8.50;;;12.30;99.90;;;;;;5073221;28;20566;-70
2021/08/29 05:00:00;;;;;;;9.93;8.65;;;12.30;99.90;;;;;;5073358;28;20429;-70
2021/08/29 05:02:25;;;;;;;9.90;8.90;;;12.20;99.90;;;;;;5073283;28;20036;-70
2021/08/29 05:04:51;;;;;;;9.40;8.50;;;12.20;99.90;;;;;;5056686;28;20471;-72
2021/08/29 05:07:17;;;;;;;10.60;8.88;;;12.30;99.90;;;;;;5093329;28;20026;-71
2021/08/29 05:09:42;;;;;;;9.05;7.13;;;12.30;99.90;;;;;;5097723;28;20039;-72
2021/08/29 05:12:08;;;;;;;8.90;7.63;;;12.20;99.90;;;;;;5096371;28;20505;-72
2021/08/29 05:14:34;;;;;;;8.52;7.53;;;12.20;99.90;;;;;;5096110;28;20021;-73
2021/08/29 05:16:59;;;;;;;8.73;7.80;;;12.20;99.90;;;;;;5095757;28;20031;-72
2021/08/29 05:19:25;;;;;;;8.27;7.47;;;12.20;99.90;;;;;;5093198;28;20055;-72
2021/08/29 05:21:51;;;;;;;8.50;7.60;;;12.30;99.90;;;;;;5073415;28;20655;-71
2021/08/29 05:24:16;;;;;;;10.52;7.80;;;12.20;99.90;;;;;;5092330;28;20024;-71
2021/08/29 05:26:42;;;;;;;9.50;7.78;;;12.20;99.90;;;;;;5092711;28;20078;-71
2021/08/29 05:29:07;;;;;;;8.05;7.25;;;12.10;99.90;;;;;;5092821;28;20032;-71
2021/08/29 05:31:33;;;;;;;8.00;7.05;;;12.10;99.90;;;;;;5075543;28;20036;-70
2021/08/29 05:33:59;;;;;;;8.80;7.20;;;12.10;99.90;;;;;;5072610;28;20029;-71
2021/08/29 05:36:24;;;;;;;7.93;7.10;;;12.20;99.90;;;;;;5071844;28;20028;-71
2021/08/29 05:38:50;;;;;;;8.23;7.43;;;12.30;99.90;;;;;;5072440;28;20027;-71
2021/08/29 05:41:16;;;;;;;8.25;7.18;;;12.30;99.90;;;;;;5072486;28;20028;-71
2021/08/29 05:43:41;;;;;;;8.55;6.88;;;12.30;99.90;;;;;;5071137;28;20097;-71
2021/08/29 05:46:07;;;;;;;9.98;6.97;;;12.30;99.90;;;;;;5071793;28;20051;-71
2021/08/29 05:48:33;;;;;;;7.65;6.55;;;12.40;99.90;;;;;;5073490;28;20025;-72
2021/08/29 05:50:59;;;;;;;8.07;6.85;;;12.40;99.90;;;;;;5072701;28;20081;-72
2021/08/29 05:53:25;;;;;;;7.78;6.97;;;12.40;99.90;;;;;;5072977;28;20081;-72
2021/08/29 05:55:51;;;;;;;7.38;6.68;;;12.20;99.90;;;;;;5072410;28;20096;-71
2021/08/29 05:58:16;;;;;;;6.88;6.20;;;12.10;99.90;;;;;;5071921;28;20344;-71
2021/08/29 06:00:42;;;;;;;9.00;7.03;;;11.90;99.90;;;;;;5072653;28;20467;-71
2021/08/29 06:03:07;;;;;;;7.63;6.93;;;12.00;99.90;;;;;;5072193;28;20031;-74
2021/08/29 06:05:33;;;;;;;8.07;7.28;;;12.20;99.90;;;;;;5070714;28;20029;-74
2021/08/29 06:08:01;;;;;;;8.13;7.18;;;12.30;99.90;;;;;;5072346;28;20024;-73
2021/08/29 06:10:27;;;;;;;7.50;6.68;;;12.50;99.90;;;;;;5072152;28;20024;-73
2021/08/29 06:12:53;;;;;;;7.32;6.57;;;12.60;99.90;;;;;;5070694;28;20111;-74
2021/08/29 06:15:19;;;;;;;7.60;6.78;;;12.60;99.90;;;;;;5071593;28;20048;-75
2021/08/29 06:17:44;;;;;;;7.28;6.57;;;12.60;99.90;;;;;;5074925;28;20024;-75
2021/08/29 06:20:11;;;;;;;7.38;6.53;;;12.60;99.90;;;;;;5092236;28;20135;-76
2021/08/29 06:22:36;;;;;;;7.05;6.35;;;12.40;99.90;;;;;;5092232;28;20024;-76
2021/08/29 06:25:02;;;;;;;7.90;7.05;;;12.40;99.90;;;;;;5091710;28;20039;-75
2021/08/29 06:27:28;;;;;;;8.45;6.57;;;12.60;99.90;;;;;;5092170;28;20028;-76
2021/08/29 06:29:53;;;;;;;7.88;6.13;;;12.70;99.90;;;;;;5091900;28;20028;-75
2021/08/29 06:32:19;;;;;;;7.30;5.90;;;12.80;99.90;;;;;;5073701;28;20024;-77
2021/08/29 06:34:45;;;;;;;5.63;5.13;;;12.70;99.90;;;;;;5091203;28;20528;-80
2021/08/29 06:37:10;;;;;;;7.53;5.70;;;12.80;99.90;;;;;;5093487;28;20470;-78
2021/08/29 06:39:36;;;;;;;5.30;4.80;;;12.80;99.90;;;;;;5074682;28;20032;-79
2021/08/29 06:42:02;;;;;;;6.22;5.63;;;12.80;99.90;;;;;;5091807;28;20028;-77
2021/08/29 06:44:27;;;;;;;5.18;4.68;;;13.00;99.90;;;;;;5092144;28;20024;-78
2021/08/29 06:46:55;;;;;;;4.75;4.35;;;13.10;99.90;;;;;;5094052;28;20063;-78
2021/08/29 06:49:21;;;;;;;5.38;4.88;;;13.20;99.90;;;;;;5091595;28;20036;-75
2021/08/29 06:51:47;;;;;;;5.30;4.80;;;13.30;99.90;;;;;;5091284;28;20039;-74
2021/08/29 06:54:14;;;;;;;5.13;4.72;;;13.20;99.90;;;;;;5073203;28;20115;-75
2021/08/29 06:56:40;;;;;;;4.60;4.20;;;13.10;99.90;;;;;;5089981;28;20074;-75
2021/08/29 06:59:05;;;;;;;7.60;4.63;;;13.10;99.90;;;;;;5091124;28;20020;-73
2021/08/29 07:01:31;;;;;;;5.55;5.05;;;13.00;99.90;;;;;;5091351;28;20024;-76
2021/08/29 07:03:56;;;;;;;5.63;5.13;;;13.20;99.90;;;;;;5091571;28;20020;-73
2021/08/29 07:06:25;;;;;;;4.63;4.20;;;13.30;99.90;;;;;;5091175;28;20028;-74
2021/08/29 07:08:51;;;;;;;4.53;4.13;;;13.40;99.90;;;;;;5091612;28;20052;-75
2021/08/29 07:11:16;;;;;;;5.45;4.30;;;13.50;99.90;;;;;;5091320;28;20051;-76
2021/08/29 07:13:42;;;;;;;5.30;4.90;;;13.50;99.90;;;;;;5091703;28;20409;-74
2021/08/29 07:16:07;;;;;;;4.25;3.95;;;13.50;99.90;;;;;;5090568;28;20035;-76
2021/08/29 07:18:33;;;;;;;4.47;3.90;;;13.40;99.90;;;;;;5091504;28;20024;-75
2021/08/29 07:20:59;;;;;;;4.15;3.85;;;13.60;99.90;;;;;;5091560;28;20432;-76
2021/08/29 07:23:26;;;;;;;3.75;3.45;;;13.50;99.90;;;;;;5091793;28;20016;-76
2021/08/29 07:25:52;;;;;;;3.15;2.95;;;13.20;99.90;;;;;;5090904;28;20020;-75
2021/08/29 07:28:18;;;;;;;3.67;3.30;;;13.10;99.90;;;;;;5073166;28;20474;-75
2021/08/29 07:30:43;;;;;;;3.85;3.55;;;13.40;99.90;;;;;;5091368;28;20023;-74
2021/08/29 07:33:09;;;;;;;3.55;3.25;;;13.50;99.90;;;;;;5091438;28;20111;-74
2021/08/29 07:35:35;;;;;;;3.08;2.88;;;13.60;99.90;;;;;;5091264;28;20020;-75
2021/08/29 07:38:02;;;;;;;3.42;3.22;;;13.70;99.90;;;;;;5091347;28;20095;-75
2021/08/29 07:40:28;;;;;;;3.30;3.00;;;13.90;99.90;;;;;;5073049;28;20504;-73
2021/08/29 07:42:54;;;;;;;2.85;2.65;;;14.00;99.90;;;;;;5094302;28;20020;-75
2021/08/29 07:45:19;;;;;;;2.88;2.67;;;13.80;99.90;;;;;;5094037;28;20032;-74
2021/08/29 07:47:52;;;;;;;2.13;2.03;;;13.90;99.90;;;;;;5094701;28;20039;-74
2021/08/29 07:50:17;;;;;;;;;;;14.00;99.90;;;;;;5087507;28;20120;-74
2021/08/29 07:52:43;;;;;;;2.25;2.15;;;14.10;99.90;;;;;;5094871;28;19999;-75
2021/08/29 07:55:09;;;;;;;2.92;1.90;;;14.00;99.90;;;;;;5095297;28;20024;-74
2021/08/29 07:57:34;;;;;;;2.95;2.75;;;13.90;99.90;;;;;;5095361;28;20051;-75
2021/08/29 08:00:01;;;;;;;2.10;2.00;;;14.00;99.90;;;;;;5095749;28;20023;-76
2021/08/29 08:02:26;;;;;;;2.00;1.90;;;14.20;99.90;;;;;;5094589;28;20028;-76
2021/08/29 08:04:55;;;;;;;2.58;2.38;;;14.30;99.90;;;;;;5094882;28;20605;-75
2021/08/29 08:07:21;;;;;;;2.78;2.58;;;14.20;99.90;;;;;;5078392;28;20029;-75
2021/08/29 08:09:46;;;;;;;2.92;2.65;;;14.20;99.90;;;;;;5095012;28;20020;-77
2021/08/29 08:12:12;;;;;;;2.60;2.50;;;14.40;99.90;;;;;;5093667;28;20028;-76
2021/08/29 08:14:38;;;;;;;3.10;2.75;;;14.40;99.90;;;;;;5177712;22;20105;-81
2021/08/29 08:17:03;;;;;;;2.30;2.17;;;14.20;99.90;;;;;;5066795;28;20024;-80
2021/08/29 08:19:29;;;;;;;2.70;2.50;;;14.20;99.90;;;;;;5075925;28;20081;-80
2021/08/29 08:21:55;;;;;;;3.63;2.47;;;14.20;99.90;;;;;;5061645;28;20029;-78
2021/08/29 08:24:21;;;;;;;3.33;3.03;;;14.30;99.90;;;;;;5048218;28;20108;-79
2021/08/29 08:26:46;;;;;;;2.83;2.63;;;14.20;99.90;;;;;;5050616;28;20021;-79
2021/08/29 08:29:12;;;;;;;3.60;3.38;;;14.00;99.90;;;;;;5054530;28;20450;-76
2021/08/29 08:31:38;;;;;;;4.45;4.05;;;14.00;99.90;;;;;;5054353;28;20447;-78
2021/08/29 08:34:03;;;;;;;3.97;3.58;;;13.90;99.90;;;;;;5054440;28;20100;-79
2021/08/29 08:36:29;;;;;;;3.70;3.10;;;14.00;99.90;;;;;;5053677;28;20024;-79
2021/08/29 08:38:55;;;;;;;3.28;3.08;;;14.30;99.90;;;;;;5042800;28;20029;-80
2021/08/29 08:41:21;;;;;;;2.75;2.63;;;14.60;99.90;;;;;;5053386;28;20021;-79
2021/08/29 08:43:47;;;;;;;3.10;2.90;;;14.30;99.90;;;;;;5054712;28;20419;-77
2021/08/29 08:46:13;;;;;;;2.60;2.50;;;14.40;99.90;;;;;;5054065;28;20122;-78
2021/08/29 08:48:40;;;;;;;3.22;2.92;;;14.60;99.90;;;;;;5036566;28;20032;-80
2021/08/29 08:51:11;;;;;;;2.45;2.28;;;14.60;99.90;;;;;;5054542;28;20032;-79
2021/08/29 08:53:39;;;;;;;2.28;1.88;;;14.80;99.90;;;;;;5053232;28;20151;-80
2021/08/29 08:56:05;;;;;;;1.20;1.10;;;15.20;99.90;;;;;;5051723;28;20167;-77
2021/08/29 08:58:39;;;;;;;0.98;0.98;;;15.60;99.90;;;;;;5036524;28;20053;-78
2021/08/29 09:01:06;;;;;;;1.15;0.77;;;15.90;99.90;;;;;;5054877;28;20370;-78
2021/08/29 09:03:33;;;;;;;0.60;0.60;;;16.00;99.90;;;;;;5054479;28;20479;-78
2021/08/29 09:05:59;;;;;;;0.80;0.80;;;15.90;99.90;;;;;;5046676;28;20067;-78
2021/08/29 09:08:25;;;;;;;0.75;0.73;;;15.90;99.90;;;;;;5016470;28;20025;-79
2021/08/29 09:10:50;;;;;;;0.50;0.50;;;16.20;99.90;;;;;;5034103;28;20022;-78
2021/08/29 09:13:17;;;;;;;1.65;0.30;;;16.20;99.90;;;;;;5033691;28;20029;-80
2021/08/29 09:15:43;;;;;;;0.30;0.30;;;16.20;99.90;;;;;;5033289;28;20044;-79
2021/08/29 09:18:11;;;;;;;0.20;0.20;;;16.40;99.90;;;;;;5038534;28;20021;-78
2021/08/29 09:20:39;;;;;;;0.35;0.35;;;16.50;99.90;;;;;;5041390;28;20017;-80
2021/08/29 09:23:07;;;;;;;0.32;0.20;;;16.80;99.90;;;;;;5034682;28;20483;-79
2021/08/29 09:25:40;;;;;;;0.20;0.20;;;16.90;99.90;;;;;;5039325;28;20056;-79
2021/08/29 09:28:10;;;;;;;0.20;0.20;;;16.60;99.90;;;;;;5053531;28;20108;-84
2021/08/29 09:30:39;;;;;;;0.28;0.28;;;16.60;99.90;;;;;;5054086;28;20095;-78
2021/08/29 09:33:05;;;;;;;2.15;0.30;;;16.90;99.90;;;;;;5053403;28;20021;-77
2021/08/29 09:35:34;;;;;;;2.80;0.20;;;17.80;99.90;;;;;;5052692;28;20021;-78
2021/08/29 09:38:02;;;;;;;0.43;0.30;;;18.00;99.90;;;;;;5035357;28;20613;-77
2021/08/29 09:40:29;;;;;;;0.20;0.20;;;18.90;99.90;;;;;;5047388;28;20025;-79
2021/08/29 09:42:56;;;;;;;0.25;0.25;;;19.20;99.90;;;;;;5045426;28;20048;-79
2021/08/29 09:45:31;;;;;;;0.43;0.40;;;19.00;99.90;;;;;;5032722;28;20397;-77
2021/08/29 09:48:08;;;;;;;0.60;0.57;;;19.00;99.90;;;;;;5046616;28;20036;-78
2021/08/29 09:50:36;;;;;;;0.70;0.60;;;18.70;99.90;;;;;;5052820;28;20471;-78
2021/08/29 09:53:09;;;;;;;0.75;0.65;;;18.00;99.90;;;;;;5052554;28;20033;-77
2021/08/29 09:55:40;;;;;;;0.80;0.80;;;17.60;99.90;;;;;;5052011;28;20103;-77
2021/08/29 09:58:32;;;;;;;1.73;1.00;;;17.60;99.90;;;;;;5052590;28;20017;-78
2021/08/29 10:01:11;;;;;;;0.80;0.80;;;17.40;99.90;;;;;;5052796;28;20550;-78
2021/08/29 10:03:47;;;;;;;1.48;1.17;;;17.40;99.90;;;;;;5052374;28;20429;-78
2021/08/29 10:06:25;;;;;;;1.40;1.30;;;17.30;99.90;;;;;;5052200;28;20017;-78
2021/08/29 10:08:57;;;;;;;1.83;1.00;;;17.30;99.90;;;;;;5052879;28;20020;-78
2021/08/29 10:11:24;;;;;;;1.70;1.60;;;17.30;99.90;;;;;;5043970;28;20390;-76
2021/08/29 10:13:51;;;;;;;1.90;1.40;;;17.20;99.90;;;;;;5041943;28;20025;-78
2021/08/29 10:16:18;;;;;;;1.98;1.88;;;17.20;99.90;;;;;;5031340;28;20055;-79
2021/08/29 10:18:47;;;;;;;2.03;1.92;;;17.20;99.90;;;;;;5031162;28;20029;-78
2021/08/29 10:21:15;;;;;;;2.05;1.95;;;17.00;99.90;;;;;;5039606;28;20028;-78
2021/08/29 10:23:42;;;;;;;1.85;1.70;;;17.20;99.90;;;;;;5032320;28;20108;-77
2021/08/29 10:26:09;;;;;;;1.40;1.30;;;17.40;99.90;;;;;;5033671;28;20095;-78
2021/08/29 10:28:44;;;;;;;1.48;1.13;;;17.60;99.90;;;;;;5017012;28;20032;-77
2021/08/29 10:31:17;;;;;;;1.50;1.08;;;18.10;99.90;;;;;;5034100;28;20504;-78
2021/08/29 10:33:47;;;;;;;1.08;0.93;;;18.30;99.90;;;;;;5033886;28;20052;-79
2021/08/29 10:36:18;;;;;;;1.05;1.02;;;18.50;99.90;;;;;;5034751;28;20102;-79
2021/08/29 10:38:46;;;;;;;1.55;1.00;;;17.70;99.90;;;;;;5034427;28;20018;-80
2021/08/29 10:41:16;;;;;;;2.55;1.00;;;17.50;99.90;;;;;;5050612;28;20028;-76
2021/08/29 10:43:43;;;;;;;1.00;1.00;;;17.20;99.90;;;;;;5044364;28;20044;-78
2021/08/29 10:46:09;;;;;;;1.48;1.38;;;17.00;99.90;;;;;;5052783;28;20071;-79
2021/08/29 10:48:47;;;;;;;1.70;1.60;;;16.80;99.90;;;;;;5053742;28;20036;-78
2021/08/29 10:51:15;;;;;;;1.67;1.20;;;16.40;99.90;;;;;;5053655;28;20052;-79
2021/08/29 10:53:48;;;;;;;1.75;1.55;;;16.30;99.90;;;;;;5051496;28;20379;-79
2021/08/29 10:56:17;;;;;;;1.58;1.48;;;16.50;99.90;;;;;;5040525;28;20495;-79
2021/08/29 10:58:46;;;;;;;4.82;1.90;;;16.60;99.90;;;;;;5053109;28;20025;-78
2021/08/29 11:01:34;;;;;;;2.10;2.00;;;16.20;99.90;;;;;;5038277;28;20108;-78
2021/08/29 11:04:20;;;;;;;2.30;2.20;;;16.00;99.90;;;;;;5033322;28;20104;-77
2021/08/29 11:06:51;;;;;;;2.75;2.08;;;15.90;99.90;;;;;;5032457;28;20021;-78
2021/08/29 11:09:40;;;;;;;2.53;2.33;;;16.00;99.90;;;;;;5032729;28;20383;-76
2021/08/29 11:12:26;;;;;;;2.50;2.40;;;16.00;99.90;;;;;;5032931;28;20022;-79
2021/08/29 11:14:53;;;;;;;2.53;2.33;;;16.10;99.90;;;;;;5032863;28;20098;-80
2021/08/29 11:17:22;;;;;;;2.40;1.88;;;16.10;99.90;;;;;;5036431;28;20018;-80
2021/08/29 11:19:53;;;;;;;2.08;1.98;;;16.00;99.90;;;;;;5038591;28;20040;-79
2021/08/29 11:22:21;;;;;;;2.15;1.92;;;16.20;99.90;;;;;;5036459;28;20025;-77
2021/08/29 11:25:01;;;;;;;1.98;1.88;;;16.50;99.90;;;;;;5037428;28;20114;-79
2021/08/29 11:27:43;;;;;;;2.53;1.73;;;16.60;99.90;;;;;;5050664;28;20030;-80
2021/08/29 11:30:14;;;;;;;2.50;2.30;;;16.40;99.90;;;;;;5051134;28;20391;-78
2021/08/29 11:32:45;;;;;;;2.28;2.10;;;16.20;99.90;;;;;;5049720;28;20014;-78
2021/08/29 11:35:23;;;;;;;2.00;1.90;;;16.20;99.90;;;;;;5048164;28;20029;-78
2021/08/29 11:38:09;;;;;;;2.05;1.77;;;16.30;99.90;;;;;;5054441;28;20050;-78
2021/08/29 11:40:56;;;;;;;1.90;1.80;;;16.10;99.90;;;;;;5042942;28;20430;-78
2021/08/29 11:43:27;;;;;;;1.92;1.70;;;16.10;99.90;;;;;;5043061;28;20028;-79
2021/08/29 11:46:15;;;;;;;1.55;1.45;;;16.20;99.90;;;;;;5057511;28;20025;-83
2021/08/29 11:48:58;;;;;;;1.38;1.38;;;16.40;99.90;;;;;;5057098;28;20036;-81
2021/08/29 11:51:25;;;;;;;2.05;1.75;;;16.40;99.90;;;;;;5052712;28;20060;-82
2021/08/29 11:53:52;;;;;;;1.67;1.58;;;16.20;99.90;;;;;;5055705;28;20025;-81
2021/08/29 11:56:18;;;;;;;2.35;1.73;;;16.20;99.90;;;;;;5055682;28;20068;-81
2021/08/29 11:58:45;;;;;;;1.45;1.35;;;16.20;99.90;;;;;;5052779;28;20024;-80
2021/08/29 12:01:11;;;;;;;1.73;1.63;;;16.20;99.90;;;;;;5034052;28;20042;-80
2021/08/29 12:03:37;;;;;;;1.15;1.15;;;16.40;99.90;;;;;;5047383;28;20032;-81
2021/08/29 12:06:08;;;;;;;1.40;1.40;;;16.40;99.90;;;;;;5050408;28;20150;-78
2021/08/29 12:09:00;;;;;;;1.48;1.40;;;16.40;99.90;;;;;;5048233;28;20016;-78
2021/08/29 12:11:27;;;;;;;1.40;1.40;;;16.60;99.90;;;;;;5049170;28;20041;-79
2021/08/29 12:13:54;;;;;;;1.67;1.58;;;16.70;99.90;;;;;;5049532;28;20426;-79
2021/08/29 12:16:20;;;;;;;1.58;1.48;;;16.70;99.90;;;;;;5046512;28;20025;-79
2021/08/29 12:18:47;;;;;;;3.80;1.08;;;16.70;99.90;;;;;;5050851;28;20029;-78
2021/08/29 12:21:14;;;;;;;1.65;1.55;;;16.50;99.90;;;;;;5048931;28;20037;-78
2021/08/29 12:23:40;;;;;;;1.73;1.30;;;16.10;99.90;;;;;;5051177;28;20021;-78
2021/08/29 12:26:08;;;;;;;2.10;1.60;;;16.00;99.90;;;;;;5053723;28;20025;-80
2021/08/29 12:28:35;;;;;;;1.45;1.35;;;16.00;99.90;;;;;;5051156;28;20022;-79
2021/08/29 12:31:01;;;;;;;2.25;1.40;;;15.90;99.90;;;;;;5051606;28;20025;-79
2021/08/29 12:33:28;;;;;;;1.50;1.40;;;15.80;99.90;;;;;;5053434;28;20029;-79
2021/08/29 12:35:54;;;;;;;1.58;1.48;;;15.80;99.90;;;;;;5049809;28;20009;-80
2021/08/29 12:38:27;;;;;;;2.53;1.25;;;16.00;99.90;;;;;;5052381;28;20502;-79
2021/08/29 12:40:55;;;;;;;3.00;1.50;;;16.10;99.90;;;;;;5053756;28;20048;-78
2021/08/29 12:43:23;;;;;;;1.55;1.35;;;16.20;99.90;;;;;;5051456;28;20060;-78
2021/08/29 12:45:49;;;;;;;1.23;1.23;;;16.40;99.90;;;;;;5049316;28;20022;-78
2021/08/29 12:48:15;;;;;;;1.05;1.05;;;16.40;99.90;;;;;;5053375;28;20372;-79
2021/08/29 12:50:48;;;;;;;1.70;1.27;;;16.30;99.90;;;;;;5051460;28;20085;-79